Time;durP1;ratioP1;P1;durP2;ratioP2;P2;SDS_P1;SDS_P2;PMS_P1;PMS_P2;Temp;Humidity;BMP_temperature;BMP_pressure;BME280_temperature;BME280_humidity;BME280_pressure;Samples;Min_cycle;Max_cycle;Signal;HPM_P1;HPM_P2
2023/04/30 00:00:49;;;;;;;1.15;1.08;;;;;;;11.47;63.12;101645.81;5157164;28;20046;-83
2023/04/30 00:03:23;;;;;;;1.02;1.02;;;;;;;11.46;63.41;101649.34;5144821;28;20043;-86
2023/04/30 00:05:53;;;;;;;2.28;1.85;;;;;;;11.24;63.93;101643.59;5161229;28;20030;-84
2023/04/30 00:08:24;;;;;;;1.45;1.35;;;;;;;10.96;65.58;101644.81;5145793;28;20034;-83
2023/04/30 00:10:54;;;;;;;2.50;1.90;;;;;;;11.08;64.59;101640.28;5158408;28;20126;-83
2023/04/30 00:13:25;;;;;;;1.20;1.20;;;;;;;11.14;64.30;101650.72;5158534;28;20077;-83
2023/04/30 00:15:55;;;;;;;2.08;1.73;;;;;;;11.11;64.59;101642.91;5158917;28;20053;-82
2023/04/30 00:18:26;;;;;;;1.70;1.38;;;;;;;11.21;64.15;101647.09;5142893;28;20035;-82
2023/04/30 00:20:56;;;;;;;1.08;1.02;;;;;;;11.02;64.46;101650.00;5155146;28;20125;-83
2023/04/30 00:23:26;;;;;;;1.02;0.98;;;;;;;11.09;64.43;101657.81;5152427;28;20094;-84
2023/04/30 00:25:57;;;;;;;2.15;2.05;;;;;;;11.00;64.11;101651.78;5141288;28;20030;-84
2023/04/30 00:28:27;;;;;;;1.90;1.23;;;;;;;10.94;64.25;101662.38;5151805;28;20050;-83
2023/04/30 00:30:58;;;;;;;1.50;1.40;;;;;;;11.03;63.97;101661.38;5172685;28;20046;-83
2023/04/30 00:33:28;;;;;;;0.98;0.98;;;;;;;10.94;64.10;101664.13;5144254;28;20117;-83
2023/04/30 00:35:59;;;;;;;0.50;0.50;;;;;;;10.69;65.30;101657.44;5148998;28;20555;-84
2023/04/30 00:38:29;;;;;;;1.02;1.02;;;;;;;10.88;64.15;101661.59;5154164;28;20038;-84
2023/04/30 00:41:00;;;;;;;2.15;1.55;;;;;;;10.75;65.17;101655.63;5179432;28;20096;-86
2023/04/30 00:43:30;;;;;;;0.93;0.93;;;;;;;10.69;64.79;101653.94;5177821;28;20058;-82
2023/04/30 00:46:02;;;;;;;1.05;1.05;;;;;;;10.66;65.54;101660.09;5157648;28;20039;-85
2023/04/30 00:48:33;;;;;;;1.58;1.48;;;;;;;10.56;65.29;101661.09;5166482;28;20014;-84
2023/04/30 00:51:04;;;;;;;3.20;1.48;;;;;;;10.66;64.50;101656.63;5155071;28;20574;-84
2023/04/30 00:53:37;;;;;;;7.47;2.60;;;;;;;10.78;64.30;101663.47;5169406;28;20686;-85
2023/04/30 00:56:08;;;;;;;0.75;0.75;;;;;;;10.84;64.21;101666.88;5154418;28;20060;-84
2023/04/30 00:58:40;;;;;;;0.40;0.40;;;;;;;10.79;64.22;101665.19;5149591;28;20105;-85
2023/04/30 01:01:10;;;;;;;0.95;0.95;;;;;;;10.60;64.68;101668.06;5164872;28;20047;-83
2023/04/30 01:03:41;;;;;;;1.17;1.15;;;;;;;10.63;64.20;101657.50;5150336;28;20053;-82
2023/04/30 01:06:12;;;;;;;2.88;1.65;;;;;;;10.59;64.29;101668.06;5148455;28;20073;-84
2023/04/30 01:08:43;;;;;;;1.52;1.40;;;;;;;10.58;64.37;101664.56;5162459;28;20038;-84
2023/04/30 01:11:51;;;;;;;0.95;0.88;;;;;;;10.68;64.30;101663.59;5159043;28;20105;-83
2023/04/30 01:14:29;;;;;;;0.98;0.98;;;;;;;10.74;64.05;101664.38;5161640;28;20089;-84
2023/04/30 01:17:38;;;;;;;1.42;1.33;;;;;;;10.74;64.26;101665.28;5146024;28;20062;-82
2023/04/30 01:20:10;;;;;;;0.90;0.90;;;;;;;10.64;64.14;101661.00;5149998;28;20039;-83
2023/04/30 01:22:49;;;;;;;1.45;1.35;;;;;;;10.53;64.39;101651.50;5162910;28;20062;-82
2023/04/30 01:25:38;;;;;;;0.75;0.75;;;;;;;10.41;64.60;101654.28;5162458;28;20108;-84
2023/04/30 01:28:13;;;;;;;0.77;0.77;;;;;;;10.53;64.02;101655.91;5155114;28;20104;-82
2023/04/30 01:30:44;;;;;;;1.85;1.75;;;;;;;10.57;63.84;101657.59;5144908;28;20046;-83
2023/04/30 01:33:14;;;;;;;1.88;1.60;;;;;;;10.59;63.88;101653.19;5165584;28;20212;-82
2023/04/30 01:36:07;;;;;;;0.77;0.77;;;;;;;10.58;64.07;101654.06;5149702;28;20074;-83
2023/04/30 01:38:57;;;;;;;2.58;2.15;;;;;;;10.62;63.81;101661.00;5150114;28;20599;-86
2023/04/30 01:41:36;;;;;;;1.58;1.48;;;;;;;10.52;63.92;101656.78;5155024;28;20058;-85
2023/04/30 01:44:16;;;;;;;1.35;1.25;;;;;;;10.49;64.00;101651.56;5186167;28;20042;-83
2023/04/30 01:47:02;;;;;;;2.28;0.85;;;;;;;10.46;63.73;101655.09;5167120;28;20421;-84
2023/04/30 01:50:10;;;;;;;6.28;2.28;;;;;;;10.34;64.08;101650.81;5156192;28;20054;-84
2023/04/30 01:52:46;;;;;;;1.13;1.13;;;;;;;10.49;63.78;101662.94;5151092;28;20097;-83
2023/04/30 01:55:36;;;;;;;0.63;0.63;;;;;;;10.49;64.09;101657.69;5149732;28;20382;-84
2023/04/30 01:58:13;;;;;;;1.17;1.08;;;;;;;10.07;66.67;101657.25;5155602;28;20043;-84
2023/04/30 02:00:44;;;;;;;0.80;0.80;;;;;;;10.19;65.41;101661.50;5148154;28;20237;-84
2023/04/30 02:03:15;;;;;;;1.33;1.23;;;;;;;10.04;65.76;101665.97;5146077;28;20065;-83
2023/04/30 02:05:47;;;;;;;1.25;1.15;;;;;;;9.63;67.77;101666.34;5143039;28;20049;-82
2023/04/30 02:08:18;;;;;;;1.02;1.02;;;;;;;10.04;65.38;101657.25;5145552;28;20034;-84
2023/04/30 02:10:48;;;;;;;0.82;0.82;;;;;;;10.10;64.75;101661.56;5163207;28;20054;-84
2023/04/30 02:13:19;;;;;;;0.65;0.65;;;;;;;9.96;65.58;101654.69;5144164;28;20047;-86
2023/04/30 02:15:49;;;;;;;2.80;2.17;;;;;;;10.02;65.02;101662.53;5167080;28;20080;-83
2023/04/30 02:18:20;;;;;;;1.48;1.38;;;;;;;10.02;64.75;101654.66;5162374;28;20670;-82
2023/04/30 02:20:51;;;;;;;1.55;1.25;;;;;;;9.74;66.75;101660.16;5156204;28;20109;-84
2023/04/30 02:23:21;;;;;;;0.93;0.93;;;;;;;9.92;65.29;101658.25;5165349;28;20636;-83
2023/04/30 02:25:52;;;;;;;1.67;1.58;;;;;;;9.80;66.13;101658.34;5144476;28;20065;-85
2023/04/30 02:28:22;;;;;;;0.60;0.60;;;;;;;9.95;65.18;101658.22;5160075;28;20034;-83
2023/04/30 02:30:53;;;;;;;1.15;1.05;;;;;;;9.66;66.95;101656.72;5156863;28;20042;-82
2023/04/30 02:33:24;;;;;;;1.30;1.20;;;;;;;9.36;68.92;101661.31;5146302;28;20034;-83
2023/04/30 02:35:54;;;;;;;1.90;1.15;;;;;;;9.53;66.96;101661.19;5143035;28;20042;-85
2023/04/30 02:38:25;;;;;;;0.38;0.38;;;;;;;9.70;66.40;101653.22;5161953;28;20122;-83
2023/04/30 02:40:55;;;;;;;1.63;1.52;;;;;;;9.47;67.28;101652.50;5143089;28;20671;-83
2023/04/30 02:43:26;;;;;;;0.80;0.80;;;;;;;9.44;67.62;101651.66;5143089;28;20058;-82
2023/04/30 02:45:56;;;;;;;0.70;0.70;;;;;;;9.48;67.48;101649.00;5147812;28;20038;-82
2023/04/30 02:48:26;;;;;;;1.75;1.63;;;;;;;9.67;66.27;101655.84;5146201;28;20045;-82
2023/04/30 02:50:57;;;;;;;0.90;0.90;;;;;;;9.31;69.40;101655.22;5145070;28;20042;-85
2023/04/30 02:53:27;;;;;;;1.25;1.15;;;;;;;9.57;66.06;101652.44;5174167;28;20042;-83
2023/04/30 02:55:58;;;;;;;1.73;1.63;;;;;;;9.64;66.43;101647.13;5163557;28;20042;-83
2023/04/30 02:58:29;;;;;;;2.47;1.65;;;;;;;9.69;66.07;101655.81;5140836;28;20041;-84
2023/04/30 03:00:59;;;;;;;1.63;1.48;;;;;;;9.48;67.12;101659.47;5161462;28;20053;-82
2023/04/30 03:03:30;;;;;;;0.77;0.77;;;;;;;9.45;67.40;101658.63;5144841;28;20045;-84
2023/04/30 03:06:00;;;;;;;13.05;4.15;;;;;;;9.59;66.34;101655.88;5144941;28;20615;-83
2023/04/30 03:08:31;;;;;;;1.05;1.05;;;;;;;9.65;65.65;101665.47;5155655;28;20038;-83
2023/04/30 03:11:02;;;;;;;1.58;1.48;;;;;;;9.64;66.35;101662.84;5158136;28;20050;-86
2023/04/30 03:13:32;;;;;;;1.13;1.13;;;;;;;9.65;66.36;101669.84;5160638;28;20101;-85
2023/04/30 03:16:03;;;;;;;1.20;1.10;;;;;;;9.62;65.94;101668.13;5143205;28;20054;-86
2023/04/30 03:18:34;;;;;;;0.95;0.95;;;;;;;9.66;66.05;101667.19;5164807;28;20369;-83
2023/04/30 03:21:04;;;;;;;0.80;0.80;;;;;;;9.72;65.76;101661.91;5161813;28;20043;-83
2023/04/30 03:23:35;;;;;;;1.27;1.17;;;;;;;9.73;66.27;101662.78;5162809;28;20034;-84
2023/04/30 03:26:05;;;;;;;0.85;0.85;;;;;;;9.76;65.67;101668.88;5144395;28;20098;-84
2023/04/30 03:28:36;;;;;;;1.83;1.73;;;;;;;9.80;65.77;101663.59;5159514;28;20035;-84
2023/04/30 03:31:07;;;;;;;1.27;1.17;;;;;;;9.82;65.33;101661.81;5146362;28;20038;-83
2023/04/30 03:33:37;;;;;;;1.40;1.33;;;;;;;9.74;65.10;101659.28;5149826;28;20038;-84
2023/04/30 03:36:26;;;;;;;0.80;0.80;;;;;;;9.74;65.76;101667.16;5155131;28;20054;-83
2023/04/30 03:39:02;;;;;;;1.40;1.30;;;;;;;9.70;65.80;101663.69;5153768;28;20145;-84
2023/04/30 03:41:33;;;;;;;1.27;1.20;;;;;;;9.71;65.56;101662.78;5152701;28;20042;-85
2023/04/30 03:44:04;;;;;;;2.17;1.65;;;;;;;9.75;65.00;101659.25;5145731;28;20178;-84
2023/04/30 03:46:35;;;;;;;0.85;0.85;;;;;;;9.79;64.55;101659.25;5161449;28;20047;-85
2023/04/30 03:49:06;;;;;;;2.95;1.73;;;;;;;9.77;64.88;101660.13;5173086;28;20054;-84
2023/04/30 03:51:40;;;;;;;0.88;0.88;;;;;;;9.78;65.06;101650.50;5171290;28;20047;-84
2023/04/30 03:54:11;;;;;;;1.10;1.08;;;;;;;9.73;65.20;101650.53;5166070;28;20073;-84
2023/04/30 03:56:42;;;;;;;1.27;1.17;;;;;;;9.76;64.62;101655.78;5153902;28;20035;-84
2023/04/30 03:59:12;;;;;;;1.40;1.35;;;;;;;9.50;64.83;101660.34;5149722;28;20221;-84
2023/04/30 04:01:43;;;;;;;2.13;1.95;;;;;;;9.56;64.96;101655.03;5163436;28;20041;-83
2023/04/30 04:04:14;;;;;;;1.75;1.42;;;;;;;9.49;65.37;101654.25;5166489;28;20110;-85
2023/04/30 04:06:45;;;;;;;2.97;2.10;;;;;;;9.48;65.09;101659.47;5151034;28;20062;-84
2023/04/30 04:09:15;;;;;;;1.58;1.48;;;;;;;9.50;65.12;101657.72;5170406;28;20039;-83
2023/04/30 04:11:47;;;;;;;1.00;0.98;;;;;;;9.54;64.71;101656.84;5146034;28;20038;-83
2023/04/30 04:14:18;;;;;;;1.80;1.70;;;;;;;9.55;65.22;101658.53;5148473;28;20041;-84
2023/04/30 04:16:59;;;;;;;0.52;0.52;;;;;;;9.55;64.59;101664.66;5156746;28;20070;-84
2023/04/30 04:19:31;;;;;;;2.85;1.45;;;;;;;9.56;65.35;101665.53;5151597;28;20026;-84
2023/04/30 04:22:03;;;;;;;1.25;1.13;;;;;;;9.51;64.92;101667.31;5142532;28;20493;-86
2023/04/30 04:24:34;;;;;;;0.85;0.85;;;;;;;9.54;64.88;101667.31;5165421;28;20103;-83
2023/04/30 04:27:04;;;;;;;1.77;1.08;;;;;;;9.54;64.81;101667.31;5145246;28;20035;-84
2023/04/30 04:29:35;;;;;;;3.53;2.50;;;;;;;9.53;64.62;101665.56;5162671;28;20034;-84
2023/04/30 04:32:05;;;;;;;1.40;1.33;;;;;;;9.55;64.74;101669.03;5157610;28;20866;-84
2023/04/30 04:34:37;;;;;;;1.70;1.60;;;;;;;9.48;64.82;101669.94;5142321;28;20288;-82
2023/04/30 04:37:08;;;;;;;2.22;1.95;;;;;;;9.43;65.03;101670.88;5147574;28;20058;-86
2023/04/30 04:39:38;;;;;;;0.98;0.93;;;;;;;9.45;65.46;101678.72;5162792;28;20491;-85
2023/04/30 04:42:09;;;;;;;1.38;1.27;;;;;;;9.41;65.49;101677.88;5146117;28;20102;-86
2023/04/30 04:44:40;;;;;;;0.95;0.95;;;;;;;9.48;65.12;101677.81;5163299;28;20034;-83
2023/04/30 04:47:11;;;;;;;0.82;0.82;;;;;;;9.47;65.02;101673.44;5143535;28;20042;-85
2023/04/30 04:49:43;;;;;;;2.40;1.52;;;;;;;9.47;64.85;101673.44;5142463;28;20053;-83
2023/04/30 04:52:13;;;;;;;1.17;0.65;;;;;;;9.44;64.63;101672.63;5159236;28;20043;-86
2023/04/30 04:54:43;;;;;;;1.50;1.40;;;;;;;9.44;64.87;101677.84;5148006;28;20034;-83
2023/04/30 04:57:14;;;;;;;1.55;1.45;;;;;;;9.43;64.27;101680.47;5144456;28;20058;-81
2023/04/30 04:59:44;;;;;;;0.68;0.68;;;;;;;9.40;64.42;101681.34;5157389;28;20034;-84
2023/04/30 05:02:15;;;;;;;0.90;0.90;;;;;;;9.38;64.32;101683.13;5163741;28;20038;-84
2023/04/30 05:04:46;;;;;;;1.15;1.15;;;;;;;9.38;64.85;101685.72;5147211;28;20034;-84
2023/04/30 05:07:17;;;;;;;1.73;1.63;;;;;;;9.33;65.30;101695.38;5146088;28;20034;-84
2023/04/30 05:09:47;;;;;;;0.40;0.40;;;;;;;9.31;64.42;101691.91;5143256;28;20043;-84
2023/04/30 05:12:17;;;;;;;1.13;1.13;;;;;;;9.31;64.90;101686.66;5166195;28;20042;-83
2023/04/30 05:14:50;;;;;;;0.70;0.70;;;;;;;9.31;65.33;101691.03;5149406;28;20034;-84
2023/04/30 05:17:20;;;;;;;0.80;0.80;;;;;;;9.33;65.80;101700.63;5158112;28;20062;-84
2023/04/30 05:19:52;;;;;;;1.73;1.40;;;;;;;9.45;65.11;101704.91;5137153;28;20066;-84
2023/04/30 05:22:22;;;;;;;1.45;1.40;;;;;;;9.35;65.65;101708.47;5143242;28;20049;-83
2023/04/30 05:24:53;;;;;;;2.13;2.00;;;;;;;9.19;66.21;101712.94;5164806;28;20018;-84
2023/04/30 05:27:25;;;;;;;0.55;0.55;;;;;;;9.26;65.72;101707.63;5146008;28;20058;-84
2023/04/30 05:29:57;;;;;;;0.90;0.90;;;;;;;9.25;66.35;101712.88;5166791;28;20026;-82
2023/04/30 05:32:27;;;;;;;0.52;0.52;;;;;;;9.21;66.06;101711.19;5158745;28;20097;-83
2023/04/30 05:35:01;;;;;;;0.82;0.82;;;;;;;9.22;65.72;101708.53;5148754;28;20062;-83
2023/04/30 05:37:32;;;;;;;1.95;1.77;;;;;;;9.09;66.98;101718.22;5151790;28;20111;-83
2023/04/30 05:40:05;;;;;;;2.15;1.60;;;;;;;9.09;67.15;101720.81;5130473;28;20090;-82
2023/04/30 05:42:42;;;;;;;1.35;1.20;;;;;;;9.20;67.44;101731.25;5152240;28;20038;-82
2023/04/30 05:45:17;;;;;;;1.38;1.27;;;;;;;9.06;68.68;101733.06;5130262;28;20057;-82
2023/04/30 05:47:47;;;;;;;1.67;1.48;;;;;;;9.14;67.13;101729.53;5158565;28;20035;-82
2023/04/30 05:50:18;;;;;;;0.60;0.60;;;;;;;9.20;67.14;101723.38;5151877;28;20057;-83
2023/04/30 05:52:49;;;;;;;0.77;0.77;;;;;;;9.02;69.67;101726.97;5155166;28;20070;-83
2023/04/30 05:55:20;;;;;;;0.60;0.60;;;;;;;8.98;70.64;101730.47;5150630;28;20034;-83
2023/04/30 05:57:50;;;;;;;0.82;0.82;;;;;;;8.90;72.45;101727.00;5150632;28;20041;-82
2023/04/30 06:00:21;;;;;;;1.10;1.10;;;;;;;9.19;68.70;101728.63;5175491;28;20054;-83
2023/04/30 06:02:52;;;;;;;0.40;0.40;;;;;;;9.02;70.38;101726.97;5158137;28;20137;-82
2023/04/30 06:05:23;;;;;;;2.25;1.73;;;;;;;9.10;69.65;101730.44;5150127;28;20140;-82
2023/04/30 06:07:53;;;;;;;0.63;0.63;;;;;;;9.24;67.69;101730.38;5150825;28;20069;-82
2023/04/30 06:10:24;;;;;;;1.42;1.35;;;;;;;9.18;69.87;101719.03;5158633;28;20117;-83
2023/04/30 06:12:55;;;;;;;3.38;2.13;;;;;;;9.20;69.38;101717.28;5152084;28;20074;-83
2023/04/30 06:15:25;;;;;;;1.30;1.20;;;;;;;9.14;70.21;101713.81;5162307;28;20571;-83
2023/04/30 06:17:56;;;;;;;1.17;1.17;;;;;;;9.01;72.24;101714.75;5150683;28;20558;-83
2023/04/30 06:20:26;;;;;;;0.77;0.77;;;;;;;9.20;70.02;101715.53;5148387;28;20034;-82
2023/04/30 06:22:58;;;;;;;1.80;1.67;;;;;;;9.27;69.03;101717.22;5161242;28;20080;-83
2023/04/30 06:25:29;;;;;;;1.92;1.75;;;;;;;9.13;72.54;101709.44;5162339;28;20088;-82
2023/04/30 06:28:00;;;;;;;0.60;0.60;;;;;;;9.23;71.12;101709.41;5143836;28;20039;-83
2023/04/30 06:30:31;;;;;;;0.82;0.82;;;;;;;9.33;69.52;101703.25;5145895;28;20041;-82
2023/04/30 06:33:01;;;;;;;1.25;1.20;;;;;;;9.33;72.67;101712.84;5160738;28;20043;-82
2023/04/30 06:35:32;;;;;;;2.10;1.98;;;;;;;9.39;70.59;101711.03;5161253;28;20081;-82
2023/04/30 06:38:02;;;;;;;1.45;1.35;;;;;;;9.33;71.43;101726.81;5162342;28;20332;-82
2023/04/30 06:40:34;;;;;;;1.35;1.25;;;;;;;9.51;71.02;101711.88;5144311;28;20042;-82
2023/04/30 06:43:04;;;;;;;0.77;0.77;;;;;;;9.47;72.54;101712.75;5145457;28;20066;-82
2023/04/30 06:45:35;;;;;;;3.00;1.90;;;;;;;9.35;72.41;101722.44;5145843;28;20140;-82
2023/04/30 06:48:05;;;;;;;0.93;0.93;;;;;;;9.34;73.18;101715.47;5150824;28;20036;-83
2023/04/30 06:50:43;;;;;;;0.70;0.70;;;;;;;9.40;73.17;101723.28;5163869;28;20566;-82
2023/04/30 06:53:14;;;;;;;1.48;1.40;;;;;;;9.37;74.41;101714.56;5159165;28;20042;-81
2023/04/30 06:55:47;;;;;;;1.45;1.10;;;;;;;9.50;72.45;101712.75;5145777;28;20046;-81
2023/04/30 06:58:18;;;;;;;2.47;2.10;;;;;;;9.49;73.97;101708.38;5156035;28;20043;-83
2023/04/30 07:00:49;;;;;;;12.32;1.98;;;;;;;9.59;72.29;101703.06;5143704;28;20534;-82
2023/04/30 07:03:20;;;;;;;1.17;1.15;;;;;;;9.69;71.07;101708.22;5144120;28;20046;-83
2023/04/30 07:05:52;;;;;;;1.08;1.05;;;;;;;9.70;73.17;101708.25;5158748;28;20093;-82
2023/04/30 07:08:23;;;;;;;1.42;1.33;;;;;;;9.76;71.39;101705.56;5152381;28;20101;-82
2023/04/30 07:10:53;;;;;;;1.80;1.70;;;;;;;9.86;71.51;101705.50;5156978;28;20042;-83
2023/04/30 07:13:23;;;;;;;4.25;1.63;;;;;;;9.86;72.50;101708.97;5155121;28;20043;-83
2023/04/30 07:15:54;;;;;;;12.13;2.00;;;;;;;9.88;72.00;101704.59;5143015;28;20077;-82
2023/04/30 07:18:43;;;;;;;1.83;1.67;;;;;;;9.92;73.34;101716.78;5161287;28;20038;-82
2023/04/30 07:21:32;;;;;;;1.52;1.42;;;;;;;9.99;72.14;101709.75;5151501;28;20035;-83
2023/04/30 07:24:23;;;;;;;1.27;1.27;;;;;;;10.10;70.93;101706.16;5157296;28;20109;-82
2023/04/30 07:27:14;;;;;;;1.77;1.63;;;;;;;10.11;73.16;101710.53;5154583;28;20089;-83
2023/04/30 07:30:06;;;;;;;3.97;1.98;;;;;;;10.17;71.91;101705.22;5136917;28;20084;-82
2023/04/30 07:32:56;;;;;;;1.42;1.35;;;;;;;10.23;71.12;101705.13;5150956;28;20415;-83
2023/04/30 07:35:47;;;;;;;0.90;0.90;;;;;;;10.28;71.95;101712.97;5153506;28;20054;-83
2023/04/30 07:38:38;;;;;;;1.52;1.45;;;;;;;10.31;74.00;101712.94;5155373;28;20042;-82
2023/04/30 07:41:29;;;;;;;1.73;1.63;;;;;;;10.44;72.62;101704.09;5159009;28;20046;-82
2023/04/30 07:44:20;;;;;;;0.85;0.85;;;;;;;10.47;71.57;101697.94;5147275;28;20094;-82
2023/04/30 07:47:11;;;;;;;0.95;0.95;;;;;;;10.52;72.71;101701.38;5145068;28;20405;-83
2023/04/30 07:50:02;;;;;;;1.42;1.38;;;;;;;10.50;72.55;101703.16;5146088;28;20064;-82
2023/04/30 07:52:53;;;;;;;0.95;0.95;;;;;;;10.54;72.53;101704.84;5157334;28;20383;-82
2023/04/30 07:55:43;;;;;;;1.45;1.35;;;;;;;10.55;72.36;101698.72;5138528;28;20058;-82
2023/04/30 07:58:34;;;;;;;1.15;1.15;;;;;;;10.66;72.52;101696.00;5170121;28;20034;-83
2023/04/30 08:01:25;;;;;;;0.82;0.82;;;;;;;10.61;71.87;101695.16;5155819;28;20046;-82
2023/04/30 08:04:16;;;;;;;1.88;1.50;;;;;;;10.76;70.98;101697.59;5165567;28;20716;-82
2023/04/30 08:07:07;;;;;;;1.30;1.27;;;;;;;10.77;71.32;101699.34;5146117;28;20456;-83
2023/04/30 08:09:57;;;;;;;1.40;1.33;;;;;;;10.84;72.33;101698.38;5164204;28;20041;-83
2023/04/30 08:12:48;;;;;;;1.75;1.55;;;;;;;10.99;71.67;101694.69;5161568;28;20046;-83
2023/04/30 08:15:39;;;;;;;0.88;0.88;;;;;;;10.99;71.33;101696.47;5155321;28;20049;-83
2023/04/30 08:18:31;;;;;;;1.02;1.02;;;;;;;10.99;70.54;101705.19;5155634;28;20101;-83
2023/04/30 08:21:22;;;;;;;1.80;1.48;;;;;;;11.11;70.85;101703.31;5154694;28;20095;-83
2023/04/30 08:24:12;;;;;;;1.10;1.08;;;;;;;11.11;70.56;101703.31;5167343;28;20321;-82
2023/04/30 08:27:03;;;;;;;0.55;0.55;;;;;;;11.12;70.58;101699.75;5154274;28;20121;-83
2023/04/30 08:29:54;;;;;;;2.40;1.83;;;;;;;11.26;70.03;101705.72;5154113;28;20035;-83
2023/04/30 08:32:45;;;;;;;1.98;1.77;;;;;;;11.29;69.80;101710.91;5153997;28;20149;-83
2023/04/30 08:35:36;;;;;;;0.73;0.57;;;;;;;11.34;69.81;101711.72;5167992;28;20053;-83
2023/04/30 08:38:28;;;;;;;1.55;1.45;;;;;;;11.46;69.91;101702.78;5144800;28;20481;-83
2023/04/30 08:41:24;;;;;;;0.95;0.95;;;;;;;11.50;68.74;101695.72;5137146;28;20044;-83
2023/04/30 08:44:15;;;;;;;1.35;1.25;;;;;;;11.54;68.80;101700.03;5138200;28;20041;-83
2023/04/30 08:47:07;;;;;;;0.50;0.50;;;;;;;11.48;67.25;101700.13;5142829;28;20154;-82
2023/04/30 08:49:57;;;;;;;1.02;1.02;;;;;;;11.72;67.29;101690.13;5150992;28;20031;-83
2023/04/30 08:52:48;;;;;;;1.33;1.23;;;;;;;11.78;66.43;101690.00;5152584;28;20094;-83
2023/04/30 08:55:40;;;;;;;4.28;1.42;;;;;;;11.88;67.36;101688.13;5145937;28;20114;-83
2023/04/30 08:58:31;;;;;;;1.27;1.23;;;;;;;11.73;67.74;101689.22;5153296;28;20123;-83
2023/04/30 09:01:22;;;;;;;1.63;1.52;;;;;;;11.82;68.81;101695.19;5150774;28;20049;-83
2023/04/30 09:04:13;;;;;;;2.08;1.80;;;;;;;11.97;65.65;101693.25;5138875;28;20041;-83
2023/04/30 09:07:05;;;;;;;0.55;0.55;;;;;;;12.00;66.64;101693.19;5155494;28;20045;-83
2023/04/30 09:09:57;;;;;;;0.98;0.93;;;;;;;12.08;66.06;101688.66;5141621;28;20034;-81
2023/04/30 09:13:03;;;;;;;1.88;1.77;;;;;;;12.16;66.44;101685.91;5146996;28;20097;-83
2023/04/30 09:15:53;;;;;;;0.80;0.80;;;;;;;12.16;66.43;101688.53;5144987;28;20070;-81
2023/04/30 09:18:45;;;;;;;0.70;0.70;;;;;;;12.27;65.68;101680.44;5159354;28;20461;-82
2023/04/30 09:21:36;;;;;;;1.52;0.75;;;;;;;12.34;65.06;101671.50;5141838;28;20077;-82
2023/04/30 09:24:45;;;;;;;1.35;1.02;;;;;;;12.55;63.76;101683.38;5155246;28;20058;-82
2023/04/30 09:27:35;;;;;;;0.57;0.57;;;;;;;12.60;64.53;101675.41;5152608;28;20039;-83
2023/04/30 09:30:33;;;;;;;0.77;0.77;;;;;;;12.60;63.75;101665.72;5165032;28;20110;-83
2023/04/30 09:33:29;;;;;;;1.15;1.15;;;;;;;12.78;64.36;101655.72;5157335;28;20035;-83
2023/04/30 09:36:19;;;;;;;0.40;0.40;;;;;;;12.75;63.47;101648.75;5154391;28;20161;-86
2023/04/30 09:39:12;;;;;;;1.00;1.00;;;;;;;13.05;61.62;101653.38;5163079;28;20041;-82
2023/04/30 09:42:09;;;;;;;0.30;0.30;;;;;;;13.11;60.51;101647.09;5165357;28;20104;-83
2023/04/30 09:45:01;;;;;;;0.47;0.47;;;;;;;13.14;61.51;101647.91;5165128;28;20030;-82
2023/04/30 09:47:51;;;;;;;2.85;1.08;;;;;;;13.66;60.53;101650.22;5168431;28;20412;-84
2023/04/30 09:50:43;;;;;;;0.60;0.60;;;;;;;13.52;61.27;101645.28;5179251;28;20051;-84
2023/04/30 09:53:37;;;;;;;0.55;0.55;;;;;;;13.56;59.76;101648.72;5146875;28;20397;-83
2023/04/30 09:56:30;;;;;;;0.45;0.45;;;;;;;13.50;59.65;101650.63;5151626;28;20142;-82
2023/04/30 09:59:25;;;;;;;0.68;0.68;;;;;;;13.50;60.03;101645.34;5149412;28;20468;-84
2023/04/30 10:02:17;;;;;;;3.00;2.65;;;;;;;13.74;59.46;101644.75;5158159;28;20045;-83
2023/04/30 10:05:08;;;;;;;1.05;0.95;;;;;;;13.87;58.44;101642.66;5156393;28;20053;-83
2023/04/30 10:07:59;;;;;;;0.57;0.57;;;;;;;13.87;59.13;101642.66;5143164;28;20121;-83
2023/04/30 10:10:55;;;;;;;1.65;1.27;;;;;;;13.92;59.16;101641.63;5165275;28;20045;-82
2023/04/30 10:14:02;;;;;;;0.40;0.40;;;;;;;14.05;60.36;101639.53;5157358;28;20080;-82
2023/04/30 10:17:05;;;;;;;0.63;0.63;;;;;;;14.12;57.39;101633.19;5169761;28;20049;-81
2023/04/30 10:20:04;;;;;;;6.28;1.58;;;;;;;14.26;59.36;101634.56;5156693;28;20254;-84
2023/04/30 10:22:55;;;;;;;0.82;0.82;;;;;;;14.33;59.46;101625.59;5165680;28;20042;-83
2023/04/30 10:25:47;;;;;;;10.63;9.45;;;;;;;14.74;59.34;101626.19;5170792;28;20042;-85
2023/04/30 10:28:39;;;;;;;5.75;5.35;;;;;;;14.68;56.71;101621.06;5148817;28;20045;-82
2023/04/30 10:31:31;;;;;;;135.25;84.93;;;;;;;14.93;58.46;101615.03;5151010;28;20057;-85
2023/04/30 10:34:40;;;;;;;13.02;11.80;;;;;;;14.84;57.41;101612.66;5152100;28;20097;-83
2023/04/30 10:37:32;;;;;;;14.93;13.45;;;;;;;14.98;56.18;101613.13;5140889;28;20066;-84
2023/04/30 10:40:25;;;;;;;89.93;59.17;;;;;;;15.05;57.38;101614.66;5144190;28;20042;-84
2023/04/30 10:43:18;;;;;;;1.98;1.88;;;;;;;15.21;55.83;101606.25;5153524;28;20081;-82
2023/04/30 10:46:09;;;;;;;1.70;1.33;;;;;;;15.11;55.05;101603.88;5144381;28;20050;-82
2023/04/30 10:49:25;;;;;;;2.53;2.33;;;;;;;15.16;55.86;101594.97;5144740;28;20074;-85
2023/04/30 10:52:27;;;;;;;0.32;0.32;;;;;;;15.30;54.44;101603.28;5159530;28;20030;-82
2023/04/30 10:55:18;;;;;;;0.30;0.30;;;;;;;15.52;53.39;101592.00;5133862;28;20737;-83
2023/04/30 10:58:44;;;;;;;0.30;0.30;;;;;;;15.58;53.89;101591.78;5144137;28;20573;-83
2023/04/30 11:01:57;;;;;;;0.43;0.43;;;;;;;15.68;53.85;101582.59;5144818;28;20184;-81
2023/04/30 11:05:06;;;;;;;0.38;0.38;;;;;;;15.85;52.47;101576.78;5154828;28;20050;-83
2023/04/30 11:08:10;;;;;;;0.70;0.55;;;;;;;15.97;52.74;101572.81;5147316;28;20034;-83
2023/04/30 11:11:01;;;;;;;0.60;0.60;;;;;;;16.10;52.66;101556.47;5166319;28;20097;-82
2023/04/30 11:14:00;;;;;;;0.68;0.68;;;;;;;16.00;53.76;101567.41;5157440;28;20049;-86
2023/04/30 11:16:52;;;;;;;0.30;0.30;;;;;;;15.97;52.56;101567.53;5155963;28;20046;-85
2023/04/30 11:19:50;;;;;;;0.30;0.30;;;;;;;15.99;52.65;101565.66;5160794;28;20038;-85
2023/04/30 11:23:14;;;;;;;0.52;0.52;;;;;;;16.04;51.21;101555.78;5151692;28;20066;-85
2023/04/30 11:26:06;;;;;;;0.20;0.20;;;;;;;16.02;51.84;101562.91;5155173;28;20106;-85
2023/04/30 11:28:57;;;;;;;0.43;0.43;;;;;;;16.29;49.95;101554.88;5171546;28;20520;-86
2023/04/30 11:31:49;;;;;;;0.30;0.30;;;;;;;16.26;52.79;101554.97;5135498;28;20492;-85
2023/04/30 11:34:43;;;;;;;0.20;0.20;;;;;;;16.41;51.96;101555.31;5140187;28;20023;-86
2023/04/30 11:37:42;;;;;;;0.63;0.63;;;;;;;16.60;50.43;101551.03;5152326;28;20053;-85
2023/04/30 11:40:34;;;;;;;3.83;0.77;;;;;;;16.75;50.28;101548.69;5139208;28;20076;-83
2023/04/30 11:43:27;;;;;;;0.38;0.38;;;;;;;16.83;49.87;101546.59;5150169;28;20034;-83
2023/04/30 11:46:18;;;;;;;0.35;0.35;;;;;;;16.94;50.33;101544.44;5156454;28;20042;-83
2023/04/30 11:49:09;;;;;;;0.30;0.30;;;;;;;16.99;52.18;101541.59;5150968;28;20062;-83
2023/04/30 11:52:00;;;;;;;0.85;0.63;;;;;;;16.98;50.04;101535.41;5162830;28;20063;-84
2023/04/30 11:55:21;;;;;;;0.30;0.30;;;;;;;17.03;48.78;101529.06;5151516;28;20027;-84
2023/04/30 11:58:12;;;;;;;0.30;0.30;;;;;;;17.09;48.62;101528.81;5152246;28;20039;-84
2023/04/30 12:01:05;;;;;;;0.30;0.30;;;;;;;17.13;49.35;101527.75;5160439;28;20042;-85
2023/04/30 12:03:56;;;;;;;0.20;0.20;;;;;;;17.24;49.12;101519.34;5157042;28;20409;-85
2023/04/30 12:06:47;;;;;;;0.20;0.20;;;;;;;17.34;50.80;101507.44;5151037;28;20039;-86
2023/04/30 12:09:52;;;;;;;2.08;1.42;;;;;;;17.58;49.49;101505.47;5152005;28;20018;-86
2023/04/30 12:12:43;;;;;;;0.55;0.43;;;;;;;17.57;49.66;101511.72;5160575;28;20130;-85
2023/04/30 12:15:34;;;;;;;0.38;0.38;;;;;;;17.67;48.31;101506.00;5164863;28;20035;-84
2023/04/30 12:18:25;;;;;;;0.35;0.35;;;;;;;17.87;48.64;101497.16;5158156;28;20047;-85
2023/04/30 12:21:17;;;;;;;1.10;0.85;;;;;;;17.79;47.98;101492.19;5156946;28;20445;-85
2023/04/30 12:24:10;;;;;;;0.20;0.20;;;;;;;17.86;47.08;101491.00;5156871;28;20477;-85
2023/04/30 12:27:02;;;;;;;0.30;0.30;;;;;;;17.97;46.85;101492.34;5145241;28;20089;-84
2023/04/30 12:29:53;;;;;;;0.52;0.38;;;;;;;17.83;46.29;101495.56;5155546;28;20274;-83
2023/04/30 12:32:47;;;;;;;0.63;0.63;;;;;;;17.95;47.03;101489.69;5158485;28;20042;-85